^^
Saratoga-Weather Station Historical Data
Daily Summary for February 23, 2020 Units:  Metric    English   Both
Daily Weekly Monthly Yearly Custom
  High: Low: Average:
Temperature: 18.2 °C 9.1 °C 13.2 °C
Dew Point: 14.1 °C 8 °C 10.3 °C
Humidity: 95% 57% 83%
Wind Speed: 16.3km/h 0km/h 4km/h
Wind Gust: 20.9km/h - -
Wind- - West
Pressure: 1028.8 hPa 1020.0 hPa -
Precipitation: 8.4 mm    
Historical Graphs
 
 
Tabular Data for February 23, 2020
Time Temperature Dew Point Pressure Wind Wind Speed Wind Gust Humidity Rainfall Rate (Hourly) solar
00:03 18.2 °C 14.1 °C 1020.0 hPa West 9.7 km/h 14.5 km/h 77% 0.0 mm 0 W/m2
00:08 18.1 °C 14 °C 1020.0 hPa West 13 km/h 14.5 km/h 77% 0.0 mm 0 W/m2
00:13 18 °C 13.9 °C 1020.0 hPa West 13 km/h 12.9 km/h 77% 0.0 mm 0 W/m2
00:18 17.9 °C 14 °C 1020.0 hPa WSW 11.1 km/h 14.5 km/h 78% 0.0 mm 0 W/m2
00:23 17.8 °C 13.9 °C 1020.0 hPa WNW 11.1 km/h 14.5 km/h 78% 0.0 mm 0 W/m2
00:28 17.8 °C 13.9 °C 1020.0 hPa West 9.7 km/h 14.5 km/h 78% 0.0 mm 0 W/m2
00:33 17.7 °C 13.8 °C 1020.0 hPa WSW 9.7 km/h 14.5 km/h 78% 0.0 mm 0 W/m2
00:38 17.7 °C 13.8 °C 1020.0 hPa WNW 6.4 km/h 9.7 km/h 78% 0.0 mm 0 W/m2
00:43 17.7 °C 14 °C 1020.0 hPa West 11.1 km/h 11.3 km/h 79% 0.0 mm 0 W/m2
00:48 17.6 °C 13.9 °C 1020.3 hPa WNW 7.9 km/h 11.3 km/h 79% 0.0 mm 0 W/m2
00:53 17.6 °C 13.9 °C 1020.3 hPa WSW 11.1 km/h 12.9 km/h 79% 0.0 mm 0 W/m2
00:58 17.5 °C 13.8 °C 1020.3 hPa SW 4.7 km/h 6.4 km/h 79% 0.0 mm 0 W/m2
01:03 17.5 °C 13.8 °C 1020.3 hPa West 13 km/h 16.1 km/h 79% 0.0 mm 0 W/m2
01:08 17.5 °C 13.6 °C 1020.0 hPa West 3.2 km/h 9.7 km/h 78% 0.0 mm 0 W/m2
01:13 17.4 °C 13.5 °C 1020.0 hPa WSW 7.9 km/h 12.9 km/h 78% 0.0 mm 0 W/m2
01:18 17.4 °C 13.7 °C 1020.0 hPa West 6.4 km/h 11.3 km/h 79% 0.0 mm 0 W/m2
01:23 17.4 °C 13.7 °C 1020.0 hPa West 3.2 km/h 8 km/h 79% 0.0 mm 0 W/m2
01:28 17.3 °C 13.6 °C 1020.3 hPa West 1.4 km/h 8 km/h 79% 0.0 mm 0 W/m2
01:33 17.3 °C 13.6 °C 1020.3 hPa WNW 4.7 km/h 11.3 km/h 79% 0.0 mm 0 W/m2
01:38 17.3 °C 13.6 °C 1020.3 hPa West 3.2 km/h 4.8 km/h 79% 0.0 mm 0 W/m2
01:43 17.3 °C 13.8 °C 1020.3 hPa West 3.2 km/h 9.7 km/h 80% 0.0 mm 0 W/m2
01:48 17.2 °C 13.7 °C 1020.3 hPa West 6.4 km/h 6.4 km/h 80% 0.0 mm 0 W/m2
01:53 17.2 °C 13.7 °C 1020.3 hPa West 4.7 km/h 6.4 km/h 80% 0.0 mm 0 W/m2
01:58 17.2 °C 13.7 °C 1020.3 hPa West 9.7 km/h 9.7 km/h 80% 0.0 mm 0 W/m2
02:03 17.2 °C 13.7 °C 1020.7 hPa West 6.4 km/h 6.4 km/h 80% 0.0 mm 0 W/m2
02:08 17.2 °C 13.7 °C 1020.7 hPa West 4.7 km/h 8 km/h 80% 0.0 mm 0 W/m2
02:13 17.2 °C 13.7 °C 1020.7 hPa WNW 1.4 km/h 4.8 km/h 80% 0.0 mm 0 W/m2
02:18 17.2 °C 13.7 °C 1020.7 hPa West 4.7 km/h 4.8 km/h 80% 0.0 mm 0 W/m2
02:23 17.2 °C 13.7 °C 1020.7 hPa WNW 4.7 km/h 6.4 km/h 80% 0.0 mm 0 W/m2
02:28 17.2 °C 13.7 °C 1020.7 hPa West 4.7 km/h 6.4 km/h 80% 0.0 mm 0 W/m2
02:33 17.2 °C 13.7 °C 1020.7 hPa WNW 4.7 km/h 8 km/h 80% 0.0 mm 0 W/m2
02:38 17.1 °C 13.6 °C 1020.7 hPa WNW 3.2 km/h 6.4 km/h 80% 0.0 mm 0 W/m2
02:43 17 °C 12.3 °C 1020.7 hPa West 9.7 km/h 9.7 km/h 74% 0.0 mm 0 W/m2
02:48 17 °C 11.1 °C 1020.7 hPa WNW 14.3 km/h 14.5 km/h 68% 0.0 mm 0 W/m2
02:53 17 °C 9.7 °C 1020.7 hPa West 4.7 km/h 6.4 km/h 62% 0.0 mm 0 W/m2
02:59 17 °C 9.4 °C 1020.7 hPa West 6.4 km/h 6.4 km/h 61% 0.0 mm 0 W/m2
03:04 16.9 °C 9.3 °C 1021.0 hPa West 4.7 km/h 16.1 km/h 61% 0.0 mm 0 W/m2
03:09 16.9 °C 9.6 °C 1021.0 hPa WNW 4.7 km/h 6.4 km/h 62% 0.0 mm 0 W/m2
03:14 16.8 °C 9.5 °C 1020.7 hPa West 4.7 km/h 16.1 km/h 62% 0.0 mm 0 W/m2
03:19 16.8 °C 9.7 °C 1021.0 hPa NW 4.7 km/h 4.8 km/h 63% 0.0 mm 0 W/m2
03:24 16.7 °C 9.6 °C 1021.0 hPa WNW 1.4 km/h 11.3 km/h 63% 0.0 mm 0 W/m2
03:29 16.7 °C 9.1 °C 1021.0 hPa NW 6.4 km/h 6.4 km/h 61% 0.0 mm 0 W/m2
03:34 16.7 °C 8.1 °C 1021.0 hPa NE 1.4 km/h 8 km/h 57% 0.0 mm 0 W/m2
03:39 16.6 °C 8 °C 1021.0 hPa WNW 6.4 km/h 11.3 km/h 57% 0.0 mm 0 W/m2
03:44 16.6 °C 8.3 °C 1021.0 hPa NW 4.7 km/h 8 km/h 58% 0.0 mm 0 W/m2
03:49 16.6 °C 8.3 °C 1021.0 hPa WNW 6.4 km/h 6.4 km/h 58% 0.0 mm 0 W/m2
03:54 16.4 °C 8.9 °C 1021.0 hPa West 4.7 km/h 6.4 km/h 61% 0.0 mm 0 W/m2
03:59 16.2 °C 8.9 °C 1021.0 hPa West 4.7 km/h 6.4 km/h 62% 0.0 mm 0 W/m2
04:04 15.9 °C 8.9 °C 1021.0 hPa WNW 3.2 km/h 9.7 km/h 63% 0.0 mm 0 W/m2
04:09 15.8 °C 9 °C 1021.0 hPa WNW 1.4 km/h 6.4 km/h 64% 0.0 mm 0 W/m2
04:14 15.7 °C 8.9 °C 1021.0 hPa NW 3.2 km/h 8 km/h 64% 0.0 mm 0 W/m2
04:19 15.6 °C 9 °C 1021.3 hPa WNW 6.4 km/h 6.4 km/h 65% 0.0 mm 0 W/m2
04:24 15.6 °C 8.8 °C 1021.3 hPa West 6.4 km/h 12.9 km/h 64% 0.0 mm 0 W/m2
04:29 15.6 °C 9.3 °C 1021.3 hPa West 3.2 km/h 9.7 km/h 66% 0.0 mm 0 W/m2
04:34 15.4 °C 9.5 °C 1021.3 hPa NW 7.9 km/h 8 km/h 68% 0.0 mm 0 W/m2
04:39 15.1 °C 9.5 °C 1021.3 hPa West 4.7 km/h 9.7 km/h 69% 0.0 mm 0 W/m2
04:44 14.9 °C 9.7 °C 1021.0 hPa West 3.2 km/h 6.4 km/h 71% 0.0 mm 0 W/m2
04:49 14.7 °C 9.7 °C 1021.0 hPa West 4.7 km/h 4.8 km/h 72% 0.0 mm 0 W/m2
04:54 14.5 °C 10.1 °C 1021.0 hPa West 1.4 km/h 3.2 km/h 75% 0.0 mm 0 W/m2
04:59 14.3 °C 10.3 °C 1021.0 hPa West 1.4 km/h 1.6 km/h 77% 0.0 mm 0 W/m2
05:04 14.1 °C 10.5 °C 1021.0 hPa Calm   3.2 km/h 79% 0.0 mm 0 W/m2
05:09 13.9 °C 10.3 °C 1021.0 hPa West 1.4 km/h 3.2 km/h 79% 0.0 mm 0 W/m2
05:14 13.8 °C 10.4 °C 1021.0 hPa Calm   1.6 km/h 80% 0.0 mm 0 W/m2
05:19 13.7 °C 10.5 °C 1021.0 hPa West 1.4 km/h 3.2 km/h 81% 0.0 mm 0 W/m2
05:24 13.6 °C 10.4 °C 1021.0 hPa SW 3.2 km/h 4.8 km/h 81% 0.0 mm 0 W/m2
05:29 13.6 °C 10.2 °C 1021.0 hPa West 1.4 km/h 1.6 km/h 80% 0.0 mm 0 W/m2
05:34 13.7 °C 10.3 °C 1021.0 hPa West 3.2 km/h 4.8 km/h 80% 0.0 mm 0 W/m2
05:39 13.7 °C 10.1 °C 1021.0 hPa WNW 1.4 km/h 3.2 km/h 79% 0.0 mm 0 W/m2
05:45 13.7 °C 10.1 °C 1021.0 hPa NW 1.4 km/h 3.2 km/h 79% 0.0 mm 0 W/m2
05:50 13.7 °C 10.1 °C 1021.0 hPa NW 1.4 km/h 3.2 km/h 79% 0.0 mm 0 W/m2
05:55 13.8 °C 10.2 °C 1021.0 hPa WNW 1.4 km/h 3.2 km/h 79% 0.0 mm 0 W/m2
06:00 13.7 °C 10.1 °C 1021.0 hPa West 1.4 km/h 3.2 km/h 79% 0.0 mm 0 W/m2
06:05 13.8 °C 10.2 °C 1021.0 hPa Calm   3.2 km/h 79% 0.0 mm 0 W/m2
06:10 13.8 °C 10.4 °C 1021.0 hPa Calm   1.6 km/h 80% 0.0 mm 0 W/m2
06:15 13.8 °C 10.6 °C 1021.0 hPa WNW 3.2 km/h 3.2 km/h 81% 0.0 mm 5 W/m2
06:20 13.8 °C 10.6 °C 1021.3 hPa West 4.7 km/h 4.8 km/h 81% 0.0 mm 7 W/m2
06:25 13.7 °C 10.5 °C 1021.3 hPa WNW 1.4 km/h 3.2 km/h 81% 0.0 mm 9 W/m2
06:30 13.7 °C 10.7 °C 1021.3 hPa NW 4.7 km/h 9.7 km/h 82% 0.0 mm 14 W/m2
06:35 13.7 °C 10.7 °C 1021.3 hPa West 3.2 km/h 6.4 km/h 82% 0.0 mm 23 W/m2
06:40 13.6 °C 10.6 °C 1021.3 hPa NW 3.2 km/h 8 km/h 82% 0.0 mm 21 W/m2
06:45 13.6 °C 10.8 °C 1021.7 hPa West 6.4 km/h 12.9 km/h 83% 0.0 mm 14 W/m2
06:50 13.6 °C 10.8 °C 1021.3 hPa West 4.7 km/h 11.3 km/h 83% 0.0 mm 12 W/m2
06:55 13.5 °C 10.7 °C 1021.3 hPa West 3.2 km/h 4.8 km/h 83% 0.0 mm 11 W/m2
07:00 13.5 °C 10.7 °C 1021.7 hPa WSW 4.7 km/h 9.7 km/h 83% 0.0 mm 11 W/m2
07:05 13.5 °C 10.5 °C 1021.7 hPa NW 4.7 km/h 12.9 km/h 82% 0.0 mm 19 W/m2
07:10 13.6 °C 10.8 °C 1022.0 hPa West 9.7 km/h 11.3 km/h 83% 0.0 mm 23 W/m2
07:15 13.5 °C 10.5 °C 1021.7 hPa West 3.2 km/h 12.9 km/h 82% 0.0 mm 19 W/m2
07:20 13.4 °C 10.6 °C 1021.7 hPa West 9.7 km/h 9.7 km/h 83% 0.0 mm 18 W/m2
07:25 13.3 °C 10.5 °C 1021.7 hPa West 3.2 km/h 6.4 km/h 83% 0.0 mm 16 W/m2
07:30 13.3 °C 10.5 °C 1021.7 hPa WNW 3.2 km/h 4.8 km/h 83% 0.0 mm 19 W/m2
07:35 13.3 °C 10.5 °C 1021.3 hPa West 4.7 km/h 9.7 km/h 83% 0.0 mm 18 W/m2
07:40 13.3 °C 10.7 °C 1021.7 hPa WNW 1.4 km/h 1.6 km/h 84% 0.0 mm 19 W/m2
07:45 13.3 °C 10.7 °C 1021.7 hPa NW 1.4 km/h 9.7 km/h 84% 0.0 mm 23 W/m2
07:50 13.3 °C 10.8 °C 1021.7 hPa WNW 3.2 km/h 6.4 km/h 85% 0.0 mm 21 W/m2
07:55 13.3 °C 10.8 °C 1021.7 hPa NW 1.4 km/h 3.2 km/h 85% 0.0 mm 21 W/m2
08:00 13.3 °C 10.8 °C 1021.7 hPa West 1.4 km/h 6.4 km/h 85% 0.0 mm 28 W/m2
08:05 13.2 °C 10.9 °C 1022.0 hPa West 3.2 km/h 3.2 km/h 86% 0.2 mm 26 W/m2
08:10 13.1 °C 10.8 °C 1021.7 hPa West 3.2 km/h 4.8 km/h 86% 0.2 mm 21 W/m2
08:15 12.9 °C 10.6 °C 1022.0 hPa WSW 3.2 km/h 9.7 km/h 86% 0.2 mm 23 W/m2
08:20 12.7 °C 10.6 °C 1022.0 hPa WSW 6.4 km/h 11.3 km/h 87% 0.5 mm 19 W/m2
08:25 12.6 °C 10.5 °C 1022.4 hPa WSW 3.2 km/h 8 km/h 87% 0.5 mm 23 W/m2
08:30 12.5 °C 10.4 °C 1022.4 hPa West 6.4 km/h 6.4 km/h 87% 0.5 mm 30 W/m2
08:35 12.4 °C 10.5 °C 1022.7 hPa WNW 11.1 km/h 12.9 km/h 88% 0.5 mm 33 W/m2
08:40 12.3 °C 10.2 °C 1022.7 hPa West 9.7 km/h 14.5 km/h 87% 0.5 mm 35 W/m2
08:45 12.3 °C 10.2 °C 1023.0 hPa WSW 11.1 km/h 17.7 km/h 87% 0.8 mm 58 W/m2
08:50 12.2 °C 9.9 °C 1023.0 hPa WNW 6.4 km/h 12.9 km/h 86% 1.0 mm 63 W/m2
08:55 11.9 °C 9.1 °C 1023.0 hPa WNW 7.9 km/h 19.3 km/h 83% 1.5 mm 49 W/m2
09:00 11.7 °C 8.7 °C 1023.0 hPa WSW 7.9 km/h 12.9 km/h 82% 1.5 mm 47 W/m2
09:05 11.4 °C 9 °C 1023.0 hPa WSW 3.2 km/h 19.3 km/h 85% 1.5 mm 51 W/m2
09:10 11.3 °C 9 °C 1023.0 hPa West 1.4 km/h 3.2 km/h 86% 1.5 mm 58 W/m2
09:15 11.2 °C 9.3 °C 1023.4 hPa Calm   3.2 km/h 88% 1.5 mm 53 W/m2
09:20 11.1 °C 9.4 °C 1023.4 hPa West 3.2 km/h 3.2 km/h 89% 1.5 mm 58 W/m2
09:25 11.2 °C 9.5 °C 1023.4 hPa WNW 3.2 km/h 3.2 km/h 89% 1.5 mm 60 W/m2
09:30 11.2 °C 9.5 °C 1023.7 hPa WSW 4.7 km/h 9.7 km/h 89% 1.5 mm 77 W/m2
09:35 11.2 °C 9.3 °C 1023.7 hPa WNW 16.3 km/h 17.7 km/h 88% 1.5 mm 65 W/m2
09:40 11.3 °C 9.4 °C 1024.0 hPa West 4.7 km/h 6.4 km/h 88% 1.5 mm 62 W/m2
09:45 11.3 °C 9.4 °C 1024.0 hPa West 6.4 km/h 17.7 km/h 88% 1.5 mm 51 W/m2
09:50 11.2 °C 9.3 °C 1024.0 hPa NNW 6.4 km/h 14.5 km/h 88% 1.3 mm 62 W/m2
09:55 11.2 °C 9.3 °C 1024.0 hPa West 3.2 km/h 12.9 km/h 88% 1.0 mm 63 W/m2
10:00 11.2 °C 9.3 °C 1024.0 hPa West 4.7 km/h 17.7 km/h 88% 1.0 mm 60 W/m2
10:05 11 °C 9.1 °C 1024.4 hPa WSW 11.1 km/h 12.9 km/h 88% 0.8 mm 53 W/m2
10:10 10.9 °C 9 °C 1024.4 hPa WNW 3.2 km/h 11.3 km/h 88% 1.0 mm 44 W/m2
10:15 10.8 °C 9.1 °C 1024.4 hPa WSW 4.7 km/h 19.3 km/h 89% 1.3 mm 47 W/m2
10:20 10.7 °C 9 °C 1024.4 hPa WSW 13 km/h 12.9 km/h 89% 1.5 mm 56 W/m2
10:25 10.5 °C 8.9 °C 1024.7 hPa WSW 7.9 km/h 14.5 km/h 90% 1.8 mm 72 W/m2
10:30 10.4 °C 8.8 °C 1024.4 hPa West 9.7 km/h 12.9 km/h 90% 1.8 mm 86 W/m2
10:35 10.3 °C 8.9 °C 1024.4 hPa WNW 3.2 km/h 6.4 km/h 91% 2.0 mm 84 W/m2
10:40 10.3 °C 8.9 °C 1024.4 hPa WNW 3.2 km/h 4.8 km/h 91% 2.0 mm 98 W/m2
10:45 10.4 °C 9 °C 1024.4 hPa West 3.2 km/h 4.8 km/h 91% 2.3 mm 109 W/m2
10:50 10.4 °C 9 °C 1024.7 hPa West 3.2 km/h 6.4 km/h 91% 2.3 mm 114 W/m2
10:56 10.4 °C 9.2 °C 1024.7 hPa WSW 3.2 km/h 4.8 km/h 92% 2.3 mm 105 W/m2
11:01 10.5 °C 9.3 °C 1024.7 hPa West 3.2 km/h 6.4 km/h 92% 2.3 mm 70 W/m2
11:06 10.5 °C 9.3 °C 1025.1 hPa WSW 4.7 km/h 8 km/h 92% 2.3 mm 65 W/m2
11:11 10.6 °C 9.4 °C 1025.1 hPa West 3.2 km/h 4.8 km/h 92% 2.0 mm 46 W/m2
11:16 10.5 °C 9.3 °C 1025.1 hPa West 4.7 km/h 9.7 km/h 92% 1.8 mm 84 W/m2
11:21 10.4 °C 8.8 °C 1025.1 hPa West 6.4 km/h 14.5 km/h 90% 1.5 mm 109 W/m2
11:26 10.4 °C 8.8 °C 1025.1 hPa West 3.2 km/h 11.3 km/h 90% 1.5 mm 144 W/m2
11:31 10.4 °C 8.7 °C 1025.1 hPa West 3.2 km/h 12.9 km/h 89% 1.3 mm 151 W/m2
11:36 10.4 °C 8.5 °C 1025.1 hPa West 14.3 km/h 14.5 km/h 88% 1.0 mm 137 W/m2
11:41 10.3 °C 8.4 °C 1025.1 hPa West 6.4 km/h 9.7 km/h 88% 1.0 mm 121 W/m2
11:46 10.4 °C 8.5 °C 1025.1 hPa West 14.5 km/h 14.5 km/h 88% 1.0 mm 116 W/m2
11:52 10.3 °C 8.4 °C 1025.1 hPa West 4.7 km/h 6.4 km/h 88% 0.8 mm 125 W/m2
11:57 10.3 °C 8.4 °C 1025.1 hPa NNE 4.7 km/h 9.7 km/h 88% 1.0 mm 125 W/m2
12:02 10.4 °C 8.5 °C 1025.1 hPa WNW 3.2 km/h 6.4 km/h 88% 0.8 mm 121 W/m2
12:07 10.5 °C 8.8 °C 1025.4 hPa NW 1.4 km/h 8 km/h 89% 0.8 mm 120 W/m2
12:12 10.5 °C 8.9 °C 1025.1 hPa WSW 4.7 km/h 4.8 km/h 90% 0.8 mm 123 W/m2
12:17 10.5 °C 8.9 °C 1025.1 hPa WSW 1.4 km/h 3.2 km/h 90% 0.8 mm 114 W/m2
12:22 10.6 °C 9.2 °C 1025.1 hPa Calm   4.8 km/h 91% 0.5 mm 116 W/m2
12:27 10.6 °C 9.2 °C 1025.1 hPa Calm   3.2 km/h 91% 0.8 mm 93 W/m2
12:32 10.6 °C 9.2 °C 1025.1 hPa WSW 1.4 km/h 3.2 km/h 91% 0.5 mm 146 W/m2
12:37 10.6 °C 9.2 °C 1025.1 hPa WSW 3.2 km/h 3.2 km/h 91% 0.5 mm 130 W/m2
12:42 10.6 °C 9 °C 1025.4 hPa Calm   1.6 km/h 90% 0.5 mm 139 W/m2
12:47 10.7 °C 9.3 °C 1025.1 hPa Calm   3.2 km/h 91% 0.5 mm 165 W/m2
12:52 10.8 °C 9.2 °C 1025.1 hPa Calm   1.6 km/h 90% 0.5 mm 197 W/m2
12:57 10.8 °C 9.1 °C 1025.1 hPa Calm   3.2 km/h 89% 0.2 mm 142 W/m2
13:02 10.9 °C 9.2 °C 1025.1 hPa Calm   1.6 km/h 89% 0.2 mm 178 W/m2
13:07 11.1 °C 9.4 °C 1025.1 hPa West 3.2 km/h 4.8 km/h 89% 0.2 mm 162 W/m2
13:12 11.1 °C 9.4 °C 1025.1 hPa West 1.4 km/h 3.2 km/h 89% 0.2 mm 185 W/m2
13:17 11.2 °C 9.5 °C 1025.1 hPa West 1.4 km/h 4.8 km/h 89% 0.2 mm 216 W/m2
13:22 11.3 °C 9.4 °C 1025.1 hPa West 1.4 km/h 4.8 km/h 88% 0.2 mm 243 W/m2
13:27 11.4 °C 9.5 °C 1025.1 hPa Calm   1.6 km/h 88% 0.0 mm 236 W/m2
13:32 11.6 °C 9.7 °C 1025.1 hPa West 6.4 km/h 6.4 km/h 88% 0.0 mm 301 W/m2
13:37 11.6 °C 9.7 °C 1025.1 hPa West 4.7 km/h 6.4 km/h 88% 0.0 mm 309 W/m2
13:42 11.7 °C 9.8 °C 1025.1 hPa West 4.7 km/h 6.4 km/h 88% 0.0 mm 394 W/m2
13:47 11.9 °C 10.1 °C 1025.1 hPa NW 6.4 km/h 6.4 km/h 89% 0.0 mm 450 W/m2
13:52 12 °C 10.1 °C 1025.1 hPa West 1.4 km/h 4.8 km/h 88% 0.0 mm 404 W/m2
13:57 12.2 °C 10.1 °C 1025.1 hPa SW 1.4 km/h 1.6 km/h 87% 0.0 mm 378 W/m2
14:02 12.4 °C 10.1 °C 1025.1 hPa NW 6.4 km/h 6.4 km/h 86% 0.0 mm 466 W/m2
14:07 12.4 °C 9.9 °C 1025.4 hPa WNW 3.2 km/h 14.5 km/h 85% 0.0 mm 403 W/m2
14:12 12.6 °C 10.3 °C 1025.4 hPa WNW 3.2 km/h 8 km/h 86% 0.0 mm 534 W/m2
14:17 12.7 °C 10.2 °C 1025.4 hPa West 4.7 km/h 4.8 km/h 85% 0.0 mm 366 W/m2
14:22 12.7 °C 9.7 °C 1025.4 hPa West 9.7 km/h 14.5 km/h 82% 0.0 mm 417 W/m2
14:27 12.7 °C 10.2 °C 1025.7 hPa WSW 3.2 km/h 9.7 km/h 85% 0.0 mm 345 W/m2
14:32 12.7 °C 10.1 °C 1025.7 hPa West 4.7 km/h 6.4 km/h 84% 0.0 mm 394 W/m2
14:37 12.8 °C 10.2 °C 1025.7 hPa NW 6.4 km/h 14.5 km/h 84% 0.0 mm 682 W/m2
14:42 12.8 °C 9.6 °C 1026.1 hPa WSW 7.9 km/h 12.9 km/h 81% 0.0 mm 519 W/m2
14:47 12.9 °C 10.1 °C 1025.7 hPa North 3.2 km/h 11.3 km/h 83% 0.0 mm 267 W/m2
14:52 12.8 °C 10 °C 1025.7 hPa West 6.4 km/h 9.7 km/h 83% 0.0 mm 376 W/m2
14:57 12.8 °C 10.2 °C 1025.7 hPa WSW 4.7 km/h 11.3 km/h 84% 0.0 mm 362 W/m2
15:02 13 °C 10.4 °C 1026.1 hPa NW 4.7 km/h 4.8 km/h 84% 0.0 mm 380 W/m2
15:08 13.2 °C 10.4 °C 1026.1 hPa West 3.2 km/h 11.3 km/h 83% 0.0 mm 401 W/m2
15:13 13.3 °C 10.5 °C 1025.7 hPa North 9.7 km/h 11.3 km/h 83% 0.0 mm 441 W/m2
15:18 13.3 °C 10.3 °C 1026.1 hPa NNW 4.7 km/h 4.8 km/h 82% 0.0 mm 448 W/m2
15:23 13.6 °C 10.6 °C 1026.1 hPa West 6.4 km/h 12.9 km/h 82% 0.0 mm 531 W/m2
15:28 13.7 °C 10.3 °C 1026.1 hPa WNW 3.2 km/h 9.7 km/h 80% 0.0 mm 396 W/m2
15:33 13.7 °C 10.5 °C 1025.7 hPa West 4.7 km/h 9.7 km/h 81% 0.0 mm 406 W/m2
15:38 13.6 °C 9.8 °C 1025.7 hPa WSW 6.4 km/h 20.9 km/h 78% 0.0 mm 432 W/m2
15:43 13.7 °C 10.3 °C 1025.7 hPa NW 7.9 km/h 8 km/h 80% 0.0 mm 543 W/m2
15:48 13.9 °C 10.3 °C 1026.1 hPa NW 7.9 km/h 20.9 km/h 79% 0.0 mm 429 W/m2
15:53 13.9 °C 10.1 °C 1025.7 hPa South 1.4 km/h 6.4 km/h 78% 0.0 mm 399 W/m2
15:58 14 °C 10.4 °C 1025.7 hPa West 4.7 km/h 12.9 km/h 79% 0.0 mm 439 W/m2
16:03 14.2 °C 10.6 °C 1025.7 hPa NW 3.2 km/h 4.8 km/h 79% 0.0 mm 404 W/m2
16:08 14.3 °C 10.5 °C 1025.7 hPa SE 1.4 km/h 4.8 km/h 78% 0.0 mm 401 W/m2
16:13 14.4 °C 10.4 °C 1025.7 hPa WSW 4.7 km/h 9.7 km/h 77% 0.0 mm 446 W/m2
16:18 14.4 °C 10.4 °C 1025.7 hPa WNW 7.9 km/h 9.7 km/h 77% 0.0 mm 366 W/m2
16:23 14.4 °C 10.4 °C 1026.1 hPa NW 4.7 km/h 8 km/h 77% 0.0 mm 320 W/m2
16:28 14.4 °C 10.2 °C 1025.7 hPa WNW 6.4 km/h 11.3 km/h 76% 0.0 mm 429 W/m2
16:33 14.4 °C 10.4 °C 1025.7 hPa West 1.4 km/h 11.3 km/h 77% 0.0 mm 464 W/m2
16:38 14.5 °C 10.5 °C 1026.1 hPa West 4.7 km/h 11.3 km/h 77% 0.0 mm 367 W/m2
16:43 14.6 °C 10.4 °C 1025.7 hPa West 1.4 km/h 8 km/h 76% 0.0 mm 359 W/m2
16:48 14.6 °C 10.4 °C 1025.7 hPa West 1.4 km/h 11.3 km/h 76% 0.0 mm 392 W/m2
16:53 14.6 °C 10.6 °C 1025.7 hPa NW 3.2 km/h 6.4 km/h 77% 0.0 mm 292 W/m2
16:58 14.7 °C 10.7 °C 1025.7 hPa WNW 6.4 km/h 8 km/h 77% 0.0 mm 422 W/m2
17:03 14.7 °C 10.7 °C 1025.7 hPa West 3.2 km/h 17.7 km/h 77% 0.0 mm 313 W/m2
17:08 14.6 °C 10.6 °C 1025.7 hPa West 3.2 km/h 9.7 km/h 77% 0.0 mm 250 W/m2
17:13 14.8 °C 10.8 °C 1025.7 hPa WNW 13 km/h 17.7 km/h 77% 0.0 mm 234 W/m2
17:18 14.8 °C 10.6 °C 1025.7 hPa NW 3.2 km/h 8 km/h 76% 0.0 mm 248 W/m2
17:23 14.7 °C 10.7 °C 1025.7 hPa Calm   16.1 km/h 77% 0.0 mm 378 W/m2
17:28 14.7 °C 10.7 °C 1025.7 hPa NW 4.7 km/h 9.7 km/h 77% 0.0 mm 304 W/m2
17:33 14.7 °C 10.5 °C 1025.7 hPa SW 4.7 km/h 6.4 km/h 76% 0.0 mm 269 W/m2
17:38 14.8 °C 10.8 °C 1025.7 hPa Calm   1.6 km/h 77% 0.0 mm 232 W/m2
17:43 14.9 °C 10.9 °C 1026.1 hPa North 6.4 km/h 6.4 km/h 77% 0.0 mm 237 W/m2
17:48 14.9 °C 10.7 °C 1026.1 hPa NNE 3.2 km/h 3.2 km/h 76% 0.0 mm 343 W/m2
17:53 15.2 °C 11 °C 1026.1 hPa WNW 1.4 km/h 4.8 km/h 76% 0.0 mm 306 W/m2
17:59 15.3 °C 11.1 °C 1026.1 hPa NNW 6.4 km/h 12.9 km/h 76% 0.0 mm 306 W/m2
18:04 15.3 °C 10.9 °C 1026.1 hPa East 1.4 km/h 6.4 km/h 75% 0.0 mm 188 W/m2
18:09 15.2 °C 10.6 °C 1026.1 hPa NW 1.4 km/h 12.9 km/h 74% 0.0 mm 139 W/m2
18:14 15.1 °C 10.7 °C 1026.4 hPa SW 3.2 km/h 9.7 km/h 75% 0.0 mm 137 W/m2
18:19 14.9 °C 10.5 °C 1026.4 hPa WNW 3.2 km/h 11.3 km/h 75% 0.0 mm 111 W/m2
18:24 14.8 °C 10.6 °C 1026.4 hPa NW 3.2 km/h 4.8 km/h 76% 0.0 mm 37 W/m2
18:29 14.7 °C 10.9 °C 1027.4 hPa West 13 km/h 17.7 km/h 78% 0.0 mm 21 W/m2
18:34 13.2 °C 9.6 °C 1027.1 hPa West 6.4 km/h 16.1 km/h 79% 2.3 mm 54 W/m2
18:39 12.4 °C 9.6 °C 1027.1 hPa West 3.2 km/h 4.8 km/h 83% 2.3 mm 141 W/m2
18:44 12.2 °C 10.1 °C 1027.1 hPa West 6.4 km/h 6.4 km/h 87% 2.3 mm 160 W/m2
18:49 12 °C 10.1 °C 1026.8 hPa WSW 7.9 km/h 11.3 km/h 88% 2.5 mm 139 W/m2
18:54 12.1 °C 10.2 °C 1026.8 hPa Calm   4.8 km/h 88% 2.5 mm 190 W/m2
18:59 12.2 °C 10.4 °C 1026.8 hPa Calm   11.3 km/h 89% 2.5 mm 162 W/m2
19:04 12.3 °C 10.5 °C 1026.8 hPa ESE 1.4 km/h 6.4 km/h 89% 2.5 mm 128 W/m2
19:09 12.3 °C 10.5 °C 1026.8 hPa ENE 6.4 km/h 6.4 km/h 89% 2.5 mm 153 W/m2
19:14 12.7 °C 11.1 °C 1026.8 hPa SW 3.2 km/h 4.8 km/h 90% 2.5 mm 364 W/m2
19:20 13.1 °C 11.5 °C 1026.8 hPa WNW 3.2 km/h 4.8 km/h 90% 2.5 mm 306 W/m2
19:25 13.2 °C 11.3 °C 1026.8 hPa West 4.7 km/h 9.7 km/h 88% 2.5 mm 267 W/m2
19:30 13.1 °C 11 °C 1026.8 hPa West 1.4 km/h 4.8 km/h 87% 1.5 mm 74 W/m2
19:35 12.9 °C 11 °C 1026.8 hPa NNE 1.4 km/h 9.7 km/h 88% 0.2 mm 97 W/m2
19:40 12.8 °C 10.9 °C 1027.1 hPa WNW 1.4 km/h 4.8 km/h 88% 0.2 mm 88 W/m2
19:45 12.7 °C 10.8 °C 1027.1 hPa North 1.4 km/h 6.4 km/h 88% 0.2 mm 88 W/m2
19:50 12.7 °C 10.8 °C 1027.1 hPa WSW 1.4 km/h 9.7 km/h 88% 0.0 mm 176 W/m2
19:55 12.8 °C 11 °C 1027.1 hPa West 3.2 km/h 3.2 km/h 89% 0.0 mm 174 W/m2
20:00 12.8 °C 10.9 °C 1027.1 hPa WNW 1.4 km/h 3.2 km/h 88% 0.0 mm 53 W/m2
20:05 12.6 °C 10.7 °C 1027.1 hPa West 1.4 km/h 6.4 km/h 88% 0.0 mm 60 W/m2
20:10 12.6 °C 10.8 °C 1027.1 hPa West 1.4 km/h 6.4 km/h 89% 0.0 mm 69 W/m2
20:15 12.5 °C 10.7 °C 1027.4 hPa Calm   1.6 km/h 89% 0.0 mm 39 W/m2
20:20 12.3 °C 10.5 °C 1027.1 hPa SE 6.4 km/h 6.4 km/h 89% 0.0 mm 37 W/m2
20:25 12.1 °C 10.3 °C 1027.4 hPa Calm   1.6 km/h 89% 0.0 mm 40 W/m2
20:30 11.9 °C 10.3 °C 1027.4 hPa NW 3.2 km/h 9.7 km/h 90% 0.0 mm 19 W/m2
20:35 11.8 °C 10.2 °C 1027.4 hPa Calm   1.6 km/h 90% 0.0 mm 14 W/m2
20:40 11.6 °C 10 °C 1027.4 hPa WNW 3.2 km/h 4.8 km/h 90% 0.0 mm 14 W/m2
20:45 11.4 °C 10 °C 1027.4 hPa West 1.4 km/h 4.8 km/h 91% 0.0 mm 14 W/m2
20:50 11.4 °C 10 °C 1027.8 hPa WSW 1.4 km/h 8 km/h 91% 0.0 mm 16 W/m2
20:55 11.3 °C 9.9 °C 1027.8 hPa Calm   3.2 km/h 91% 0.0 mm 14 W/m2
21:00 11.3 °C 9.9 °C 1027.8 hPa NW 1.4 km/h 3.2 km/h 91% 0.0 mm 16 W/m2
21:05 11.3 °C 9.9 °C 1027.8 hPa East 3.2 km/h 3.2 km/h 91% 0.0 mm 12 W/m2
21:10 11.3 °C 10 °C 1027.8 hPa Calm   1.6 km/h 92% 0.0 mm 7 W/m2
21:15 11.3 °C 10 °C 1028.1 hPa Calm   3.2 km/h 92% 0.0 mm 0 W/m2
21:20 11.5 °C 10.2 °C 1028.1 hPa WSW 3.2 km/h 4.8 km/h 92% 0.0 mm 0 W/m2
21:25 11.6 °C 10.3 °C 1028.1 hPa West 1.4 km/h 3.2 km/h 92% 0.0 mm 0 W/m2
21:30 11.5 °C 10.2 °C 1027.8 hPa SW 1.4 km/h 3.2 km/h 92% 0.0 mm 0 W/m2
21:35 11.4 °C 10.1 °C 1028.1 hPa SW 3.2 km/h 3.2 km/h 92% 0.0 mm 0 W/m2
21:40 11.3 °C 10 °C 1028.1 hPa Calm   1.6 km/h 92% 0.0 mm 0 W/m2
21:45 11.2 °C 9.9 °C 1028.1 hPa SW 1.4 km/h 3.2 km/h 92% 0.0 mm 0 W/m2
21:50 11 °C 9.8 °C 1028.1 hPa SW 1.4 km/h 1.6 km/h 92% 0.0 mm 0 W/m2
21:55 10.8 °C 9.6 °C 1028.1 hPa Calm   1.6 km/h 92% 0.0 mm 0 W/m2
22:00 10.7 °C 9.6 °C 1028.1 hPa WSW 1.4 km/h 4.8 km/h 93% 0.0 mm 0 W/m2
22:05 10.5 °C 9.4 °C 1028.1 hPa Calm   3.2 km/h 93% 0.0 mm 0 W/m2
22:10 10.4 °C 9.3 °C 1028.5 hPa WSW 1.4 km/h 3.2 km/h 93% 0.0 mm 0 W/m2
22:15 10.3 °C 9.2 °C 1028.5 hPa WSW 1.4 km/h 3.2 km/h 93% 0.0 mm 0 W/m2
22:20 10.2 °C 9.1 °C 1028.1 hPa WSW 1.4 km/h 1.6 km/h 93% 0.0 mm 0 W/m2
22:25 9.9 °C 8.8 °C 1028.1 hPa Calm   1.6 km/h 93% 0.0 mm 0 W/m2
22:30 9.8 °C 8.7 °C 1028.1 hPa WSW 1.4 km/h 1.6 km/h 93% 0.0 mm 0 W/m2
22:35 9.7 °C 8.8 °C 1028.1 hPa Calm     94% 0.0 mm 0 W/m2
22:40 9.7 °C 8.8 °C 1028.1 hPa Calm     94% 0.0 mm 0 W/m2
22:45 9.6 °C 8.7 °C 1028.1 hPa Calm   1.6 km/h 94% 0.0 mm 0 W/m2
22:50 9.5 °C 8.6 °C 1028.1 hPa Calm   1.6 km/h 94% 0.0 mm 0 W/m2
22:55 9.4 °C 8.5 °C 1028.1 hPa Calm     94% 0.0 mm 0 W/m2
23:00 9.4 °C 8.5 °C 1028.5 hPa Calm   1.6 km/h 94% 0.0 mm 0 W/m2
23:05 9.3 °C 8.4 °C 1028.5 hPa Calm     94% 0.0 mm 0 W/m2
23:10 9.2 °C 8.3 °C 1028.5 hPa Calm     94% 0.0 mm 0 W/m2
23:15 9.1 °C 8.2 °C 1028.5 hPa Calm     94% 0.0 mm 0 W/m2
23:20 9.1 °C 8.2 °C 1028.5 hPa Calm   1.6 km/h 94% 0.0 mm 0 W/m2
23:25 9.1 °C 8.3 °C 1028.5 hPa West 1.4 km/h 3.2 km/h 95% 0.0 mm 0 W/m2
23:30 9.3 °C 8.5 °C 1028.5 hPa West 1.4 km/h 6.4 km/h 95% 0.0 mm 0 W/m2
23:35 9.4 °C 8.6 °C 1028.8 hPa Calm   4.8 km/h 95% 0.0 mm 0 W/m2
23:40 9.5 °C 8.7 °C 1028.8 hPa NW 3.2 km/h 4.8 km/h 95% 0.0 mm 0 W/m2
23:46 9.6 °C 8.8 °C 1028.8 hPa WSW 1.4 km/h 6.4 km/h 95% 0.0 mm 0 W/m2
23:51 9.6 °C 8.8 °C 1028.8 hPa WNW 1.4 km/h 6.4 km/h 95% 0.0 mm 0 W/m2
23:56 9.6 °C 8.8 °C 1028.8 hPa West 3.2 km/h 9.7 km/h 95% 0.0 mm 0 W/m2
Juneau County Weather
Compliments of Weather Underground - 2 mb